sensor_id;sensor_type;location;lat;lon;timestamp;P1;durP1;ratioP1;P2;durP2;ratioP2
8171;SDS011;4127;47.908;10.850;2023-11-21T00:00:03;2.40;;;1.80;;
8171;SDS011;4127;47.908;10.850;2023-11-21T00:02:36;6.30;;;2.27;;
8171;SDS011;4127;47.908;10.850;2023-11-21T00:05:07;2.93;;;2.00;;
8171;SDS011;4127;47.908;10.850;2023-11-21T00:07:40;3.53;;;1.80;;
8171;SDS011;4127;47.908;10.850;2023-11-21T00:10:08;3.83;;;1.90;;
8171;SDS011;4127;47.908;10.850;2023-11-21T00:12:36;2.67;;;1.77;;
8171;SDS011;4127;47.908;10.850;2023-11-21T00:15:04;3.60;;;2.53;;
8171;SDS011;4127;47.908;10.850;2023-11-21T00:17:32;3.07;;;2.03;;
8171;SDS011;4127;47.908;10.850;2023-11-21T00:19:59;2.73;;;1.47;;
8171;SDS011;4127;47.908;10.850;2023-11-21T00:22:25;3.80;;;1.97;;
8171;SDS011;4127;47.908;10.850;2023-11-21T00:24:52;6.07;;;2.33;;
8171;SDS011;4127;47.908;10.850;2023-11-21T00:27:19;5.30;;;1.93;;
8171;SDS011;4127;47.908;10.850;2023-11-21T00:29:46;2.50;;;1.60;;
8171;SDS011;4127;47.908;10.850;2023-11-21T00:32:13;2.50;;;1.50;;
8171;SDS011;4127;47.908;10.850;2023-11-21T00:34:40;2.23;;;1.73;;
8171;SDS011;4127;47.908;10.850;2023-11-21T00:37:08;3.40;;;2.00;;
8171;SDS011;4127;47.908;10.850;2023-11-21T00:39:35;3.43;;;1.93;;
8171;SDS011;4127;47.908;10.850;2023-11-21T00:42:02;4.40;;;1.90;;
8171;SDS011;4127;47.908;10.850;2023-11-21T00:44:31;4.13;;;2.10;;
8171;SDS011;4127;47.908;10.850;2023-11-21T00:46:58;5.20;;;2.00;;
8171;SDS011;4127;47.908;10.850;2023-11-21T00:49:25;3.27;;;1.93;;
8171;SDS011;4127;47.908;10.850;2023-11-21T00:51:52;6.43;;;2.00;;
8171;SDS011;4127;47.908;10.850;2023-11-21T00:54:19;3.67;;;2.70;;
8171;SDS011;4127;47.908;10.850;2023-11-21T00:56:46;3.13;;;1.80;;
8171;SDS011;4127;47.908;10.850;2023-11-21T00:59:15;3.70;;;1.90;;
8171;SDS011;4127;47.908;10.850;2023-11-21T01:01:42;3.37;;;1.87;;
8171;SDS011;4127;47.908;10.850;2023-11-21T01:04:10;5.00;;;2.00;;
8171;SDS011;4127;47.908;10.850;2023-11-21T01:06:37;5.53;;;2.63;;
8171;SDS011;4127;47.908;10.850;2023-11-21T01:09:05;3.77;;;1.80;;
8171;SDS011;4127;47.908;10.850;2023-11-21T01:11:35;2.37;;;1.80;;
8171;SDS011;4127;47.908;10.850;2023-11-21T01:14:03;2.40;;;2.10;;
8171;SDS011;4127;47.908;10.850;2023-11-21T01:16:30;3.60;;;1.90;;
8171;SDS011;4127;47.908;10.850;2023-11-21T01:18:59;4.80;;;1.90;;
8171;SDS011;4127;47.908;10.850;2023-11-21T01:21:26;4.27;;;2.20;;
8171;SDS011;4127;47.908;10.850;2023-11-21T01:23:54;5.10;;;2.17;;
8171;SDS011;4127;47.908;10.850;2023-11-21T01:26:21;3.10;;;2.10;;
8171;SDS011;4127;47.908;10.850;2023-11-21T01:28:48;3.47;;;1.90;;
8171;SDS011;4127;47.908;10.850;2023-11-21T01:31:15;2.40;;;1.87;;
8171;SDS011;4127;47.908;10.850;2023-11-21T01:33:42;2.70;;;1.83;;
8171;SDS011;4127;47.908;10.850;2023-11-21T01:36:10;1.97;;;1.67;;
8171;SDS011;4127;47.908;10.850;2023-11-21T01:38:37;3.10;;;1.80;;
8171;SDS011;4127;47.908;10.850;2023-11-21T01:41:04;2.93;;;1.87;;
8171;SDS011;4127;47.908;10.850;2023-11-21T01:43:32;3.57;;;2.20;;
8171;SDS011;4127;47.908;10.850;2023-11-21T01:46:00;2.80;;;1.83;;
8171;SDS011;4127;47.908;10.850;2023-11-21T01:48:27;2.73;;;2.00;;
8171;SDS011;4127;47.908;10.850;2023-11-21T01:50:54;3.77;;;2.30;;
8171;SDS011;4127;47.908;10.850;2023-11-21T01:53:23;3.47;;;2.03;;
8171;SDS011;4127;47.908;10.850;2023-11-21T01:55:53;3.40;;;1.90;;
8171;SDS011;4127;47.908;10.850;2023-11-21T01:58:24;2.00;;;1.77;;
8171;SDS011;4127;47.908;10.850;2023-11-21T02:00:50;3.67;;;1.73;;
8171;SDS011;4127;47.908;10.850;2023-11-21T02:03:19;2.40;;;1.60;;
8171;SDS011;4127;47.908;10.850;2023-11-21T02:05:47;2.97;;;1.60;;
8171;SDS011;4127;47.908;10.850;2023-11-21T02:08:14;3.27;;;1.70;;
8171;SDS011;4127;47.908;10.850;2023-11-21T02:10:40;1.90;;;1.60;;
8171;SDS011;4127;47.908;10.850;2023-11-21T02:13:07;3.63;;;2.00;;
8171;SDS011;4127;47.908;10.850;2023-11-21T02:15:34;2.87;;;1.80;;
8171;SDS011;4127;47.908;10.850;2023-11-21T02:18:01;4.57;;;1.83;;
8171;SDS011;4127;47.908;10.850;2023-11-21T02:20:29;2.97;;;1.87;;
8171;SDS011;4127;47.908;10.850;2023-11-21T02:22:56;3.50;;;1.80;;
8171;SDS011;4127;47.908;10.850;2023-11-21T02:25:29;2.10;;;1.60;;
8171;SDS011;4127;47.908;10.850;2023-11-21T02:28:01;5.13;;;1.80;;
8171;SDS011;4127;47.908;10.850;2023-11-21T02:30:29;2.87;;;1.63;;
8171;SDS011;4127;47.908;10.850;2023-11-21T02:33:00;3.70;;;2.13;;
8171;SDS011;4127;47.908;10.850;2023-11-21T02:35:28;4.47;;;1.60;;
8171;SDS011;4127;47.908;10.850;2023-11-21T02:37:58;4.93;;;2.07;;
8171;SDS011;4127;47.908;10.850;2023-11-21T02:40:25;2.70;;;1.77;;
8171;SDS011;4127;47.908;10.850;2023-11-21T02:42:53;2.93;;;1.90;;
8171;SDS011;4127;47.908;10.850;2023-11-21T02:45:21;4.00;;;1.87;;
8171;SDS011;4127;47.908;10.850;2023-11-21T02:47:48;3.23;;;1.90;;
8171;SDS011;4127;47.908;10.850;2023-11-21T02:50:16;3.77;;;1.93;;
8171;SDS011;4127;47.908;10.850;2023-11-21T02:52:46;2.93;;;1.93;;
8171;SDS011;4127;47.908;10.850;2023-11-21T02:55:13;2.77;;;1.67;;
8171;SDS011;4127;47.908;10.850;2023-11-21T02:57:41;2.33;;;2.10;;
8171;SDS011;4127;47.908;10.850;2023-11-21T03:00:08;4.53;;;1.20;;
8171;SDS011;4127;47.908;10.850;2023-11-21T03:02:36;2.37;;;1.70;;
8171;SDS011;4127;47.908;10.850;2023-11-21T03:05:06;2.53;;;1.60;;
8171;SDS011;4127;47.908;10.850;2023-11-21T03:07:38;4.13;;;1.80;;
8171;SDS011;4127;47.908;10.850;2023-11-21T03:10:07;2.17;;;1.70;;
8171;SDS011;4127;47.908;10.850;2023-11-21T03:12:36;3.13;;;2.27;;
8171;SDS011;4127;47.908;10.850;2023-11-21T03:15:04;3.13;;;1.60;;
8171;SDS011;4127;47.908;10.850;2023-11-21T03:17:32;2.37;;;1.60;;
8171;SDS011;4127;47.908;10.850;2023-11-21T03:20:03;3.47;;;1.90;;
8171;SDS011;4127;47.908;10.850;2023-11-21T03:22:31;2.53;;;1.73;;
8171;SDS011;4127;47.908;10.850;2023-11-21T03:24:58;6.07;;;1.83;;
8171;SDS011;4127;47.908;10.850;2023-11-21T03:27:25;4.13;;;2.00;;
8171;SDS011;4127;47.908;10.850;2023-11-21T03:29:52;3.73;;;1.63;;
8171;SDS011;4127;47.908;10.850;2023-11-21T03:32:20;5.37;;;1.93;;
8171;SDS011;4127;47.908;10.850;2023-11-21T03:34:54;3.07;;;1.83;;
8171;SDS011;4127;47.908;10.850;2023-11-21T03:37:26;3.67;;;1.80;;
8171;SDS011;4127;47.908;10.850;2023-11-21T03:39:55;2.40;;;2.10;;
8171;SDS011;4127;47.908;10.850;2023-11-21T03:42:23;1.73;;;1.47;;
8171;SDS011;4127;47.908;10.850;2023-11-21T03:44:53;2.93;;;1.50;;
8171;SDS011;4127;47.908;10.850;2023-11-21T03:47:20;4.83;;;2.03;;
8171;SDS011;4127;47.908;10.850;2023-11-21T03:49:47;4.70;;;1.67;;
8171;SDS011;4127;47.908;10.850;2023-11-21T03:52:14;3.83;;;1.63;;
8171;SDS011;4127;47.908;10.850;2023-11-21T03:54:41;3.57;;;1.87;;
8171;SDS011;4127;47.908;10.850;2023-11-21T03:57:09;4.03;;;1.80;;
8171;SDS011;4127;47.908;10.850;2023-11-21T03:59:39;3.63;;;1.67;;
8171;SDS011;4127;47.908;10.850;2023-11-21T04:02:07;2.67;;;1.50;;
8171;SDS011;4127;47.908;10.850;2023-11-21T04:04:35;1.93;;;1.60;;
8171;SDS011;4127;47.908;10.850;2023-11-21T04:07:02;2.80;;;1.73;;
8171;SDS011;4127;47.908;10.850;2023-11-21T04:09:30;2.17;;;1.50;;
8171;SDS011;4127;47.908;10.850;2023-11-21T04:11:57;3.23;;;1.70;;
8171;SDS011;4127;47.908;10.850;2023-11-21T04:14:24;4.07;;;1.60;;
8171;SDS011;4127;47.908;10.850;2023-11-21T04:16:51;1.80;;;1.40;;
8171;SDS011;4127;47.908;10.850;2023-11-21T04:19:18;3.30;;;2.30;;
8171;SDS011;4127;47.908;10.850;2023-11-21T04:21:45;3.50;;;1.80;;
8171;SDS011;4127;47.908;10.850;2023-11-21T04:24:12;4.77;;;1.60;;
8171;SDS011;4127;47.908;10.850;2023-11-21T04:26:39;2.43;;;1.60;;
8171;SDS011;4127;47.908;10.850;2023-11-21T04:29:06;2.13;;;1.47;;
8171;SDS011;4127;47.908;10.850;2023-11-21T04:31:33;3.63;;;1.70;;
8171;SDS011;4127;47.908;10.850;2023-11-21T04:34:00;3.23;;;1.50;;
8171;SDS011;4127;47.908;10.850;2023-11-21T04:36:27;1.50;;;1.20;;
8171;SDS011;4127;47.908;10.850;2023-11-21T04:38:56;3.40;;;1.60;;
8171;SDS011;4127;47.908;10.850;2023-11-21T04:41:24;2.70;;;1.80;;
8171;SDS011;4127;47.908;10.850;2023-11-21T04:43:50;2.30;;;1.60;;
8171;SDS011;4127;47.908;10.850;2023-11-21T04:46:17;3.40;;;1.50;;
8171;SDS011;4127;47.908;10.850;2023-11-21T04:48:44;1.87;;;1.67;;
8171;SDS011;4127;47.908;10.850;2023-11-21T04:51:11;4.07;;;1.83;;
8171;SDS011;4127;47.908;10.850;2023-11-21T04:53:39;2.20;;;1.13;;
8171;SDS011;4127;47.908;10.850;2023-11-21T04:56:06;2.20;;;1.40;;
8171;SDS011;4127;47.908;10.850;2023-11-21T04:58:33;1.73;;;1.60;;
8171;SDS011;4127;47.908;10.850;2023-11-21T05:01:00;1.87;;;1.30;;
8171;SDS011;4127;47.908;10.850;2023-11-21T05:03:27;1.63;;;1.30;;
8171;SDS011;4127;47.908;10.850;2023-11-21T05:05:56;3.23;;;1.37;;
8171;SDS011;4127;47.908;10.850;2023-11-21T05:08:23;1.70;;;1.60;;
8171;SDS011;4127;47.908;10.850;2023-11-21T05:10:50;2.47;;;2.27;;
8171;SDS011;4127;47.908;10.850;2023-11-21T05:13:18;2.17;;;2.00;;
8171;SDS011;4127;47.908;10.850;2023-11-21T05:15:46;2.80;;;1.80;;
8171;SDS011;4127;47.908;10.850;2023-11-21T05:18:13;2.83;;;1.90;;
8171;SDS011;4127;47.908;10.850;2023-11-21T05:20:40;2.33;;;1.70;;
8171;SDS011;4127;47.908;10.850;2023-11-21T05:23:07;2.77;;;1.90;;
8171;SDS011;4127;47.908;10.850;2023-11-21T05:25:34;2.57;;;1.83;;
8171;SDS011;4127;47.908;10.850;2023-11-21T05:28:06;1.90;;;1.70;;
8171;SDS011;4127;47.908;10.850;2023-11-21T05:30:33;1.77;;;1.67;;
8171;SDS011;4127;47.908;10.850;2023-11-21T05:32:59;1.77;;;1.57;;
8171;SDS011;4127;47.908;10.850;2023-11-21T05:35:26;3.37;;;1.50;;
8171;SDS011;4127;47.908;10.850;2023-11-21T05:37:53;1.80;;;1.33;;
8171;SDS011;4127;47.908;10.850;2023-11-21T05:40:20;2.10;;;1.53;;
8171;SDS011;4127;47.908;10.850;2023-11-21T05:42:49;1.67;;;1.27;;
8171;SDS011;4127;47.908;10.850;2023-11-21T05:45:18;1.43;;;1.20;;
8171;SDS011;4127;47.908;10.850;2023-11-21T05:47:45;1.90;;;1.27;;
8171;SDS011;4127;47.908;10.850;2023-11-21T05:50:14;1.57;;;1.40;;
8171;SDS011;4127;47.908;10.850;2023-11-21T05:52:42;8.77;;;6.20;;
8171;SDS011;4127;47.908;10.850;2023-11-21T05:55:10;3.63;;;3.30;;
8171;SDS011;4127;47.908;10.850;2023-11-21T05:57:37;1.67;;;1.57;;
8171;SDS011;4127;47.908;10.850;2023-11-21T06:00:09;2.13;;;1.50;;
8171;SDS011;4127;47.908;10.850;2023-11-21T06:02:41;1.70;;;1.60;;
8171;SDS011;4127;47.908;10.850;2023-11-21T06:05:08;1.33;;;1.30;;
8171;SDS011;4127;47.908;10.850;2023-11-21T06:07:36;1.87;;;1.60;;
8171;SDS011;4127;47.908;10.850;2023-11-21T06:10:04;1.80;;;1.30;;
8171;SDS011;4127;47.908;10.850;2023-11-21T06:12:33;1.93;;;1.53;;
8171;SDS011;4127;47.908;10.850;2023-11-21T06:15:05;1.50;;;1.40;;
8171;SDS011;4127;47.908;10.850;2023-11-21T06:17:37;1.67;;;1.50;;
8171;SDS011;4127;47.908;10.850;2023-11-21T06:20:06;1.57;;;1.40;;
8171;SDS011;4127;47.908;10.850;2023-11-21T06:22:41;2.20;;;2.00;;
8171;SDS011;4127;47.908;10.850;2023-11-21T06:25:09;2.00;;;1.90;;
8171;SDS011;4127;47.908;10.850;2023-11-21T06:27:43;1.70;;;1.60;;
8171;SDS011;4127;47.908;10.850;2023-11-21T06:30:17;1.50;;;1.40;;
8171;SDS011;4127;47.908;10.850;2023-11-21T06:32:45;1.87;;;1.43;;
8171;SDS011;4127;47.908;10.850;2023-11-21T06:35:13;1.90;;;1.80;;
8171;SDS011;4127;47.908;10.850;2023-11-21T06:37:43;10.20;;;8.60;;
8171;SDS011;4127;47.908;10.850;2023-11-21T06:40:15;5.60;;;4.70;;
8171;SDS011;4127;47.908;10.850;2023-11-21T06:42:45;6.00;;;4.77;;
8171;SDS011;4127;47.908;10.850;2023-11-21T06:45:13;3.30;;;3.00;;
8171;SDS011;4127;47.908;10.850;2023-11-21T06:47:41;3.37;;;3.07;;
8171;SDS011;4127;47.908;10.850;2023-11-21T06:50:08;2.40;;;2.20;;
8171;SDS011;4127;47.908;10.850;2023-11-21T06:52:35;2.40;;;2.07;;
8171;SDS011;4127;47.908;10.850;2023-11-21T06:55:02;2.63;;;1.90;;
8171;SDS011;4127;47.908;10.850;2023-11-21T06:57:30;1.70;;;1.60;;
8171;SDS011;4127;47.908;10.850;2023-11-21T06:59:58;2.10;;;1.50;;
8171;SDS011;4127;47.908;10.850;2023-11-21T07:02:25;1.73;;;1.43;;
8171;SDS011;4127;47.908;10.850;2023-11-21T07:04:52;1.53;;;1.43;;
8171;SDS011;4127;47.908;10.850;2023-11-21T07:07:18;2.47;;;2.10;;
8171;SDS011;4127;47.908;10.850;2023-11-21T07:09:46;3.03;;;2.77;;
8171;SDS011;4127;47.908;10.850;2023-11-21T07:12:14;3.00;;;2.70;;
8171;SDS011;4127;47.908;10.850;2023-11-21T07:14:41;3.20;;;2.37;;
8171;SDS011;4127;47.908;10.850;2023-11-21T07:17:11;3.47;;;2.47;;
8171;SDS011;4127;47.908;10.850;2023-11-21T07:19:39;2.20;;;2.00;;
8171;SDS011;4127;47.908;10.850;2023-11-21T07:22:06;2.53;;;1.87;;
8171;SDS011;4127;47.908;10.850;2023-11-21T07:24:36;1.80;;;1.53;;
8171;SDS011;4127;47.908;10.850;2023-11-21T07:27:03;2.13;;;1.90;;
8171;SDS011;4127;47.908;10.850;2023-11-21T07:29:37;1.60;;;1.50;;
8171;SDS011;4127;47.908;10.850;2023-11-21T07:32:06;1.30;;;1.20;;
8171;SDS011;4127;47.908;10.850;2023-11-21T07:34:33;2.50;;;1.50;;
8171;SDS011;4127;47.908;10.850;2023-11-21T07:37:00;1.13;;;1.03;;
8171;SDS011;4127;47.908;10.850;2023-11-21T07:39:27;1.67;;;1.30;;
8171;SDS011;4127;47.908;10.850;2023-11-21T07:41:54;2.07;;;1.30;;
8171;SDS011;4127;47.908;10.850;2023-11-21T07:44:21;1.63;;;1.43;;
8171;SDS011;4127;47.908;10.850;2023-11-21T07:46:48;1.37;;;1.10;;
8171;SDS011;4127;47.908;10.850;2023-11-21T07:49:16;1.97;;;1.53;;
8171;SDS011;4127;47.908;10.850;2023-11-21T07:51:49;1.50;;;1.40;;
8171;SDS011;4127;47.908;10.850;2023-11-21T07:54:15;1.70;;;1.30;;
8171;SDS011;4127;47.908;10.850;2023-11-21T07:56:42;1.40;;;1.30;;
8171;SDS011;4127;47.908;10.850;2023-11-21T07:59:10;1.40;;;1.30;;
8171;SDS011;4127;47.908;10.850;2023-11-21T08:01:37;1.00;;;1.00;;
8171;SDS011;4127;47.908;10.850;2023-11-21T08:04:04;1.43;;;1.33;;
8171;SDS011;4127;47.908;10.850;2023-11-21T08:06:33;1.57;;;1.43;;
8171;SDS011;4127;47.908;10.850;2023-11-21T08:09:00;1.10;;;1.00;;
8171;SDS011;4127;47.908;10.850;2023-11-21T08:11:26;1.47;;;1.37;;
8171;SDS011;4127;47.908;10.850;2023-11-21T08:13:55;1.60;;;1.13;;
8171;SDS011;4127;47.908;10.850;2023-11-21T08:16:23;1.30;;;1.20;;
8171;SDS011;4127;47.908;10.850;2023-11-21T08:18:50;1.07;;;1.00;;
8171;SDS011;4127;47.908;10.850;2023-11-21T08:21:17;1.43;;;1.07;;
8171;SDS011;4127;47.908;10.850;2023-11-21T08:23:45;2.00;;;1.43;;
8171;SDS011;4127;47.908;10.850;2023-11-21T08:26:15;1.67;;;1.27;;
8171;SDS011;4127;47.908;10.850;2023-11-21T08:28:44;1.50;;;1.40;;
8171;SDS011;4127;47.908;10.850;2023-11-21T08:31:11;1.03;;;0.93;;
8171;SDS011;4127;47.908;10.850;2023-11-21T08:33:41;1.33;;;1.20;;
8171;SDS011;4127;47.908;10.850;2023-11-21T08:36:08;1.17;;;1.07;;
8171;SDS011;4127;47.908;10.850;2023-11-21T08:38:37;1.60;;;1.30;;
8171;SDS011;4127;47.908;10.850;2023-11-21T08:41:07;2.30;;;1.60;;
8171;SDS011;4127;47.908;10.850;2023-11-21T08:43:37;2.63;;;2.40;;
8171;SDS011;4127;47.908;10.850;2023-11-21T08:46:07;1.77;;;1.67;;
8171;SDS011;4127;47.908;10.850;2023-11-21T08:48:36;2.47;;;1.37;;
8171;SDS011;4127;47.908;10.850;2023-11-21T08:51:04;1.90;;;1.33;;
8171;SDS011;4127;47.908;10.850;2023-11-21T08:53:31;1.53;;;1.43;;
8171;SDS011;4127;47.908;10.850;2023-11-21T08:55:58;1.77;;;1.10;;
8171;SDS011;4127;47.908;10.850;2023-11-21T08:58:25;1.87;;;1.60;;
8171;SDS011;4127;47.908;10.850;2023-11-21T09:00:52;2.93;;;2.53;;
8171;SDS011;4127;47.908;10.850;2023-11-21T09:03:20;1.50;;;1.40;;
8171;SDS011;4127;47.908;10.850;2023-11-21T09:05:48;1.43;;;1.30;;
8171;SDS011;4127;47.908;10.850;2023-11-21T09:08:15;1.50;;;1.40;;
8171;SDS011;4127;47.908;10.850;2023-11-21T09:10:42;2.33;;;1.50;;
8171;SDS011;4127;47.908;10.850;2023-11-21T09:13:11;1.27;;;1.20;;
8171;SDS011;4127;47.908;10.850;2023-11-21T09:15:38;2.03;;;1.60;;
8171;SDS011;4127;47.908;10.850;2023-11-21T09:18:06;1.37;;;1.20;;
8171;SDS011;4127;47.908;10.850;2023-11-21T09:20:33;1.33;;;1.23;;
8171;SDS011;4127;47.908;10.850;2023-11-21T09:23:00;1.43;;;1.33;;
8171;SDS011;4127;47.908;10.850;2023-11-21T09:25:27;2.03;;;1.93;;
8171;SDS011;4127;47.908;10.850;2023-11-21T09:27:55;1.80;;;1.67;;
8171;SDS011;4127;47.908;10.850;2023-11-21T09:30:23;3.77;;;2.17;;
8171;SDS011;4127;47.908;10.850;2023-11-21T09:32:51;2.07;;;1.50;;
8171;SDS011;4127;47.908;10.850;2023-11-21T09:35:18;2.10;;;1.60;;
8171;SDS011;4127;47.908;10.850;2023-11-21T09:37:45;1.87;;;1.73;;
8171;SDS011;4127;47.908;10.850;2023-11-21T09:40:15;1.67;;;1.57;;
8171;SDS011;4127;47.908;10.850;2023-11-21T09:42:55;2.20;;;1.43;;
8171;SDS011;4127;47.908;10.850;2023-11-21T09:45:27;1.50;;;1.40;;
8171;SDS011;4127;47.908;10.850;2023-11-21T09:47:55;2.27;;;1.70;;
8171;SDS011;4127;47.908;10.850;2023-11-21T09:50:24;1.70;;;1.60;;
8171;SDS011;4127;47.908;10.850;2023-11-21T09:55:48;1.40;;;1.30;;
8171;SDS011;4127;47.908;10.850;2023-11-21T09:58:18;1.67;;;1.53;;
8171;SDS011;4127;47.908;10.850;2023-11-21T10:00:49;1.40;;;1.30;;
8171;SDS011;4127;47.908;10.850;2023-11-21T10:03:18;1.60;;;1.50;;
8171;SDS011;4127;47.908;10.850;2023-11-21T10:05:46;1.50;;;1.40;;
8171;SDS011;4127;47.908;10.850;2023-11-21T10:08:16;1.83;;;1.20;;
8171;SDS011;4127;47.908;10.850;2023-11-21T10:10:46;1.80;;;1.70;;
8171;SDS011;4127;47.908;10.850;2023-11-21T10:13:17;2.30;;;1.53;;
8171;SDS011;4127;47.908;10.850;2023-11-21T10:15:49;1.60;;;1.30;;
8171;SDS011;4127;47.908;10.850;2023-11-21T10:18:19;1.57;;;1.47;;
8171;SDS011;4127;47.908;10.850;2023-11-21T10:20:49;3.00;;;2.13;;
8171;SDS011;4127;47.908;10.850;2023-11-21T10:23:20;1.80;;;1.70;;
8171;SDS011;4127;47.908;10.850;2023-11-21T10:25:50;1.93;;;1.83;;
8171;SDS011;4127;47.908;10.850;2023-11-21T10:28:19;2.20;;;1.97;;
8171;SDS011;4127;47.908;10.850;2023-11-21T10:30:48;2.07;;;1.87;;
8171;SDS011;4127;47.908;10.850;2023-11-21T10:33:15;1.70;;;1.60;;
8171;SDS011;4127;47.908;10.850;2023-11-21T10:38:20;1.63;;;1.53;;
8171;SDS011;4127;47.908;10.850;2023-11-21T10:40:50;2.20;;;2.00;;
8171;SDS011;4127;47.908;10.850;2023-11-21T10:43:17;1.47;;;1.33;;
8171;SDS011;4127;47.908;10.850;2023-11-21T10:45:46;3.43;;;1.60;;
8171;SDS011;4127;47.908;10.850;2023-11-21T10:48:13;1.40;;;1.30;;
8171;SDS011;4127;47.908;10.850;2023-11-21T10:50:45;2.10;;;1.30;;
8171;SDS011;4127;47.908;10.850;2023-11-21T10:53:12;1.60;;;1.50;;
8171;SDS011;4127;47.908;10.850;2023-11-21T10:55:40;1.60;;;1.27;;
8171;SDS011;4127;47.908;10.850;2023-11-21T10:58:07;1.80;;;1.70;;
8171;SDS011;4127;47.908;10.850;2023-11-21T11:00:37;1.70;;;1.50;;
8171;SDS011;4127;47.908;10.850;2023-11-21T11:03:06;1.10;;;1.10;;
8171;SDS011;4127;47.908;10.850;2023-11-21T11:05:43;1.37;;;1.27;;
8171;SDS011;4127;47.908;10.850;2023-11-21T11:08:20;1.30;;;1.20;;
8171;SDS011;4127;47.908;10.850;2023-11-21T11:10:53;2.30;;;1.80;;
8171;SDS011;4127;47.908;10.850;2023-11-21T11:13:21;1.40;;;1.30;;
8171;SDS011;4127;47.908;10.850;2023-11-21T11:15:49;1.33;;;1.20;;
8171;SDS011;4127;47.908;10.850;2023-11-21T11:18:17;1.30;;;1.20;;
8171;SDS011;4127;47.908;10.850;2023-11-21T11:20:47;1.60;;;1.37;;
8171;SDS011;4127;47.908;10.850;2023-11-21T11:23:29;1.53;;;1.43;;
8171;SDS011;4127;47.908;10.850;2023-11-21T11:26:32;1.50;;;1.40;;
8171;SDS011;4127;47.908;10.850;2023-11-21T11:29:33;1.50;;;1.40;;
8171;SDS011;4127;47.908;10.850;2023-11-21T11:34:53;1.87;;;1.70;;
8171;SDS011;4127;47.908;10.850;2023-11-21T11:37:28;3.67;;;2.37;;
8171;SDS011;4127;47.908;10.850;2023-11-21T11:39:56;1.50;;;1.40;;
8171;SDS011;4127;47.908;10.850;2023-11-21T11:42:26;2.27;;;1.63;;
8171;SDS011;4127;47.908;10.850;2023-11-21T11:44:53;1.70;;;1.60;;
8171;SDS011;4127;47.908;10.850;2023-11-21T11:47:24;1.70;;;1.60;;
8171;SDS011;4127;47.908;10.850;2023-11-21T11:50:07;2.40;;;2.00;;
8171;SDS011;4127;47.908;10.850;2023-11-21T11:52:46;1.87;;;1.77;;
8171;SDS011;4127;47.908;10.850;2023-11-21T11:55:15;1.60;;;1.50;;
8171;SDS011;4127;47.908;10.850;2023-11-21T11:57:48;2.20;;;2.00;;
8171;SDS011;4127;47.908;10.850;2023-11-21T12:02:57;1.40;;;1.30;;
8171;SDS011;4127;47.908;10.850;2023-11-21T12:05:26;2.00;;;1.83;;
8171;SDS011;4127;47.908;10.850;2023-11-21T12:08:00;1.67;;;1.57;;
8171;SDS011;4127;47.908;10.850;2023-11-21T12:10:30;1.60;;;1.50;;
8171;SDS011;4127;47.908;10.850;2023-11-21T12:13:00;1.60;;;1.50;;
8171;SDS011;4127;47.908;10.850;2023-11-21T12:15:31;1.67;;;1.57;;
8171;SDS011;4127;47.908;10.850;2023-11-21T12:17:58;2.93;;;2.17;;
8171;SDS011;4127;47.908;10.850;2023-11-21T12:20:26;1.70;;;1.60;;
8171;SDS011;4127;47.908;10.850;2023-11-21T12:22:54;1.80;;;1.70;;
8171;SDS011;4127;47.908;10.850;2023-11-21T12:25:22;1.80;;;1.70;;
8171;SDS011;4127;47.908;10.850;2023-11-21T12:27:52;2.40;;;2.20;;
8171;SDS011;4127;47.908;10.850;2023-11-21T12:30:22;2.57;;;2.03;;
8171;SDS011;4127;47.908;10.850;2023-11-21T12:32:51;3.63;;;2.63;;
8171;SDS011;4127;47.908;10.850;2023-11-21T12:35:23;4.97;;;3.03;;
8171;SDS011;4127;47.908;10.850;2023-11-21T12:37:51;4.47;;;3.90;;
8171;SDS011;4127;47.908;10.850;2023-11-21T12:40:19;4.03;;;3.47;;
8171;SDS011;4127;47.908;10.850;2023-11-21T12:42:51;3.27;;;2.97;;
8171;SDS011;4127;47.908;10.850;2023-11-21T12:45:23;3.30;;;3.00;;
8171;SDS011;4127;47.908;10.850;2023-11-21T12:47:54;6.67;;;5.70;;
8171;SDS011;4127;47.908;10.850;2023-11-21T12:50:30;4.60;;;3.03;;
8171;SDS011;4127;47.908;10.850;2023-11-21T12:53:00;3.00;;;2.70;;
8171;SDS011;4127;47.908;10.850;2023-11-21T12:55:43;3.77;;;2.57;;
8171;SDS011;4127;47.908;10.850;2023-11-21T12:58:17;3.40;;;3.00;;
8171;SDS011;4127;47.908;10.850;2023-11-21T13:00:47;4.23;;;3.23;;
8171;SDS011;4127;47.908;10.850;2023-11-21T13:03:15;4.47;;;3.00;;
8171;SDS011;4127;47.908;10.850;2023-11-21T13:05:50;2.97;;;2.70;;
8171;SDS011;4127;47.908;10.850;2023-11-21T13:08:19;3.60;;;2.53;;
8171;SDS011;4127;47.908;10.850;2023-11-21T13:10:50;2.43;;;2.17;;
8171;SDS011;4127;47.908;10.850;2023-11-21T13:13:24;2.00;;;1.80;;
8171;SDS011;4127;47.908;10.850;2023-11-21T13:16:03;2.23;;;2.03;;
8171;SDS011;4127;47.908;10.850;2023-11-21T13:18:31;2.03;;;1.93;;
8171;SDS011;4127;47.908;10.850;2023-11-21T13:20:59;1.80;;;1.70;;
8171;SDS011;4127;47.908;10.850;2023-11-21T13:23:29;2.17;;;1.90;;
8171;SDS011;4127;47.908;10.850;2023-11-21T13:26:02;2.10;;;2.00;;
8171;SDS011;4127;47.908;10.850;2023-11-21T13:28:33;2.50;;;1.60;;
8171;SDS011;4127;47.908;10.850;2023-11-21T13:31:01;1.43;;;1.33;;
8171;SDS011;4127;47.908;10.850;2023-11-21T13:33:37;1.40;;;1.20;;
8171;SDS011;4127;47.908;10.850;2023-11-21T13:36:05;1.20;;;1.20;;
8171;SDS011;4127;47.908;10.850;2023-11-21T13:38:37;1.47;;;1.37;;
8171;SDS011;4127;47.908;10.850;2023-11-21T13:41:09;2.27;;;1.43;;
8171;SDS011;4127;47.908;10.850;2023-11-21T13:43:36;1.40;;;1.30;;
8171;SDS011;4127;47.908;10.850;2023-11-21T13:46:04;1.53;;;1.43;;
8171;SDS011;4127;47.908;10.850;2023-11-21T13:48:40;1.30;;;1.30;;
8171;SDS011;4127;47.908;10.850;2023-11-21T13:51:09;0.90;;;0.90;;
8171;SDS011;4127;47.908;10.850;2023-11-21T13:53:47;1.10;;;1.00;;
8171;SDS011;4127;47.908;10.850;2023-11-21T13:56:17;1.70;;;1.60;;
8171;SDS011;4127;47.908;10.850;2023-11-21T13:58:48;1.93;;;1.77;;
8171;SDS011;4127;47.908;10.850;2023-11-21T14:01:20;2.57;;;2.37;;
8171;SDS011;4127;47.908;10.850;2023-11-21T14:03:51;2.73;;;1.93;;
8171;SDS011;4127;47.908;10.850;2023-11-21T14:06:24;1.20;;;1.10;;
8171;SDS011;4127;47.908;10.850;2023-11-21T14:08:56;0.90;;;0.90;;
8171;SDS011;4127;47.908;10.850;2023-11-21T14:11:23;1.40;;;1.30;;
8171;SDS011;4127;47.908;10.850;2023-11-21T14:13:55;3.83;;;3.33;;
8171;SDS011;4127;47.908;10.850;2023-11-21T14:16:22;3.33;;;3.00;;
8171;SDS011;4127;47.908;10.850;2023-11-21T14:18:49;1.90;;;1.80;;
8171;SDS011;4127;47.908;10.850;2023-11-21T14:21:24;1.37;;;1.27;;
8171;SDS011;4127;47.908;10.850;2023-11-21T14:23:52;1.50;;;1.40;;
8171;SDS011;4127;47.908;10.850;2023-11-21T14:26:20;2.17;;;2.07;;
8171;SDS011;4127;47.908;10.850;2023-11-21T14:28:50;3.07;;;2.87;;
8171;SDS011;4127;47.908;10.850;2023-11-21T14:31:17;3.30;;;3.00;;
8171;SDS011;4127;47.908;10.850;2023-11-21T14:33:44;2.83;;;2.63;;
8171;SDS011;4127;47.908;10.850;2023-11-21T14:36:12;2.23;;;2.03;;
8171;SDS011;4127;47.908;10.850;2023-11-21T14:38:39;2.57;;;2.37;;
8171;SDS011;4127;47.908;10.850;2023-11-21T14:41:06;14.50;;;11.90;;
8171;SDS011;4127;47.908;10.850;2023-11-21T14:43:37;7.47;;;6.10;;
8171;SDS011;4127;47.908;10.850;2023-11-21T14:46:05;3.63;;;2.83;;
8171;SDS011;4127;47.908;10.850;2023-11-21T14:48:36;3.40;;;3.10;;
8171;SDS011;4127;47.908;10.850;2023-11-21T14:51:09;3.53;;;3.23;;
8171;SDS011;4127;47.908;10.850;2023-11-21T14:53:38;4.17;;;3.77;;
8171;SDS011;4127;47.908;10.850;2023-11-21T14:56:21;4.60;;;4.20;;
8171;SDS011;4127;47.908;10.850;2023-11-21T14:58:53;5.47;;;4.97;;
8171;SDS011;4127;47.908;10.850;2023-11-21T15:01:23;5.93;;;5.43;;
8171;SDS011;4127;47.908;10.850;2023-11-21T15:04:09;3.97;;;3.67;;
8171;SDS011;4127;47.908;10.850;2023-11-21T15:06:52;3.33;;;3.13;;
8171;SDS011;4127;47.908;10.850;2023-11-21T15:09:20;2.90;;;2.70;;
8171;SDS011;4127;47.908;10.850;2023-11-21T15:11:46;5.57;;;5.07;;
8171;SDS011;4127;47.908;10.850;2023-11-21T15:14:14;7.23;;;6.63;;
8171;SDS011;4127;47.908;10.850;2023-11-21T15:16:46;6.90;;;6.30;;
8171;SDS011;4127;47.908;10.850;2023-11-21T15:19:18;6.80;;;6.10;;
8171;SDS011;4127;47.908;10.850;2023-11-21T15:21:50;5.27;;;4.83;;